createdAt,value
2022-12-08T00:01:11.795Z,101102.16
2022-12-08T00:03:39.447Z,101088.13
2022-12-08T00:06:33.919Z,101097.06
2022-12-08T00:09:19.047Z,101078.88
2022-12-08T00:11:46.088Z,101071.13
2022-12-08T00:14:12.841Z,101081.69
2022-12-08T00:16:40.088Z,101080.88
2022-12-08T00:19:06.722Z,101074.06
2022-12-08T00:21:33.905Z,101046.34
2022-12-08T00:24:00.905Z,101060.47
2022-12-08T00:26:27.452Z,101047.53
2022-12-08T00:28:54.478Z,101032.66
2022-12-08T00:31:21.093Z,101041.63
2022-12-08T00:33:47.629Z,101032.25
2022-12-08T00:36:15.651Z,101030.50
2022-12-08T00:38:42.311Z,101042.81
2022-12-08T00:41:17.821Z,101043.59
2022-12-08T00:43:44.636Z,101003.72
2022-12-08T00:46:12.226Z,100999.44
2022-12-08T00:48:39.514Z,100994.22
2022-12-08T00:51:06.143Z,101013.34
2022-12-08T00:53:34.829Z,101029.06
2022-12-08T00:56:01.836Z,101004.66
2022-12-08T00:58:29.368Z,100995.03
2022-12-08T01:00:55.950Z,101012.41
2022-12-08T01:03:22.626Z,101041.25
2022-12-08T01:05:49.174Z,101041.38
2022-12-08T01:08:16.218Z,101025.78
2022-12-08T01:10:42.948Z,101025.22
2022-12-08T01:13:09.551Z,100981.31
2022-12-08T01:15:37.061Z,101011.66
2022-12-08T01:18:03.739Z,100991.22
2022-12-08T01:20:30.259Z,100978.31
2022-12-08T01:22:57.046Z,101011.75
2022-12-08T01:25:23.617Z,101024.53
2022-12-08T01:27:52.470Z,101019.19
2022-12-08T01:30:20.004Z,101020.94
2022-12-08T01:32:48.666Z,101034.28
2022-12-08T01:35:17.095Z,100979.31
2022-12-08T01:37:43.730Z,101006.25
2022-12-08T01:40:10.519Z,100975.91
2022-12-08T01:42:38.353Z,100989.50
2022-12-08T01:45:21.356Z,101015.22
2022-12-08T01:47:50.246Z,100990.84
2022-12-08T01:50:20.492Z,100989.16
2022-12-08T01:52:51.273Z,100991.78
2022-12-08T01:55:25.340Z,100984.03
2022-12-08T01:57:58.837Z,100986.63
2022-12-08T02:00:25.520Z,100975.56
2022-12-08T02:03:07.682Z,100986.69
2022-12-08T02:05:37.090Z,100963.34
2022-12-08T02:08:08.236Z,100995.53
2022-12-08T02:10:38.268Z,100999.78
2022-12-08T02:13:13.141Z,100970.31
2022-12-08T02:16:04.462Z,100982.59
2022-12-08T02:19:28.937Z,100993.34
2022-12-08T02:22:07.918Z,100986.63
2022-12-08T02:24:41.764Z,100960.72
2022-12-08T02:27:08.271Z,100973.88
2022-12-08T02:29:52.499Z,100941.00
2022-12-08T02:35:15.793Z,100962.00
2022-12-08T02:38:05.406Z,100931.53
2022-12-08T02:40:39.693Z,100967.59
2022-12-08T02:43:14.372Z,100971.94
2022-12-08T02:45:52.597Z,100947.81
2022-12-08T02:48:19.793Z,100913.81
2022-12-08T02:50:46.325Z,100940.66
2022-12-08T02:56:05.951Z,100939.50
2022-12-08T02:58:47.813Z,100936.94
2022-12-08T03:01:17.134Z,100942.06
2022-12-08T03:04:00.079Z,100932.59
2022-12-08T03:06:33.935Z,100928.25
2022-12-08T03:09:04.987Z,100932.81
2022-12-08T03:11:41.121Z,100925.63
2022-12-08T03:14:10.613Z,100918.06
2022-12-08T03:16:39.958Z,100896.44
2022-12-08T03:19:23.302Z,100915.78
2022-12-08T03:22:02.759Z,100914.09
2022-12-08T03:24:37.834Z,100898.41
2022-12-08T03:27:08.202Z,100914.19
2022-12-08T03:29:34.976Z,100906.34
2022-12-08T03:32:11.497Z,100925.34
2022-12-08T03:34:41.277Z,100917.47
2022-12-08T03:37:07.940Z,100917.59
2022-12-08T03:39:34.908Z,100902.22
2022-12-08T03:42:01.390Z,100890.25
2022-12-08T03:44:29.826Z,100894.75
2022-12-08T03:46:56.338Z,100881.81
2022-12-08T03:49:23.340Z,100867.28
2022-12-08T03:51:50.649Z,100850.00
2022-12-08T03:54:17.675Z,100867.28
2022-12-08T03:56:44.309Z,100876.91
2022-12-08T03:59:11.182Z,100882.09
2022-12-08T04:01:38.363Z,100872.41
2022-12-08T04:04:05.097Z,100857.72
2022-12-08T04:06:32.125Z,100802.22
2022-12-08T04:08:59.300Z,100887.34
2022-12-08T04:11:26.381Z,100877.00
2022-12-08T04:13:53.182Z,100893.38
2022-12-08T04:16:24.620Z,100890.72
2022-12-08T04:18:51.389Z,100899.69
2022-12-08T04:21:18.928Z,100896.03
2022-12-08T04:23:46.695Z,100894.38
2022-12-08T04:26:14.531Z,100891.34
2022-12-08T04:28:41.607Z,100865.59
2022-12-08T04:31:09.092Z,100892.03
2022-12-08T04:33:36.317Z,100895.16
2022-12-08T04:36:04.899Z,100885.66
2022-12-08T04:38:32.451Z,100888.28
2022-12-08T04:40:59.137Z,100887.06
2022-12-08T04:43:25.722Z,100881.13
2022-12-08T04:45:52.264Z,100848.38
2022-12-08T04:48:18.903Z,100849.81
2022-12-08T04:50:46.504Z,100873.69
2022-12-08T04:53:14.713Z,100857.94
2022-12-08T04:55:43.963Z,100850.22
2022-12-08T04:58:18.208Z,100853.03
2022-12-08T05:00:44.786Z,100861.63
2022-12-08T05:03:12.497Z,100865.09
2022-12-08T05:05:39.790Z,100860.09
2022-12-08T05:08:06.948Z,100862.75
2022-12-08T05:10:33.605Z,100869.69
2022-12-08T05:13:00.362Z,100848.16
2022-12-08T05:15:27.468Z,100859.50
2022-12-08T05:17:54.041Z,100843.88
2022-12-08T05:20:20.605Z,100817.94
2022-12-08T05:22:47.651Z,100850.84
2022-12-08T05:25:15.000Z,100858.56
2022-12-08T05:27:42.110Z,100862.06
2022-12-08T05:30:08.854Z,100868.94
2022-12-08T05:32:35.486Z,100826.50
2022-12-08T05:35:02.566Z,100829.13
2022-12-08T05:37:29.668Z,100842.19
2022-12-08T05:39:56.670Z,100853.38
2022-12-08T05:42:24.962Z,100848.78
2022-12-08T05:44:52.196Z,100832.16
2022-12-08T05:47:18.789Z,100818.91
2022-12-08T05:49:45.864Z,100842.34
2022-12-08T05:52:12.389Z,100830.09
2022-12-08T05:54:40.113Z,100843.84
2022-12-08T05:57:06.880Z,100818.66
2022-12-08T05:59:33.611Z,100842.16
2022-12-08T06:02:00.313Z,100838.84
2022-12-08T06:04:27.362Z,100836.31
2022-12-08T06:06:54.434Z,100768.31
2022-12-08T06:09:21.135Z,100824.75
2022-12-08T06:11:47.783Z,100825.72
2022-12-08T06:14:14.297Z,100839.56
2022-12-08T06:16:41.218Z,100799.72
2022-12-08T06:19:08.081Z,100835.41
2022-12-08T06:21:35.177Z,100811.84
2022-12-08T06:24:02.151Z,100843.09
2022-12-08T06:26:29.006Z,100837.25
2022-12-08T06:28:56.172Z,100812.19
2022-12-08T06:31:27.185Z,100803.56
2022-12-08T06:33:55.162Z,100796.56
2022-12-08T06:36:24.913Z,100819.09
2022-12-08T06:38:52.192Z,100811.03
2022-12-08T06:41:19.055Z,100812.97
2022-12-08T06:43:45.985Z,100826.91
2022-12-08T06:46:16.481Z,100832.31
2022-12-08T06:48:43.355Z,100821.72
2022-12-08T06:51:12.604Z,100825.47
2022-12-08T06:53:39.441Z,100822.91
2022-12-08T06:56:06.685Z,100830.63
2022-12-08T06:58:33.791Z,100831.41
2022-12-08T07:01:12.645Z,100826.28
2022-12-08T07:03:40.980Z,100807.78
2022-12-08T07:06:07.984Z,100830.97
2022-12-08T07:08:35.635Z,100825.00
2022-12-08T07:11:09.780Z,100847.63
2022-12-08T07:13:36.544Z,100827.59
2022-12-08T07:16:10.899Z,100820.69
2022-12-08T07:18:38.469Z,100864.47
2022-12-08T07:21:11.313Z,100827.38
2022-12-08T07:23:38.146Z,100867.06
2022-12-08T07:26:08.289Z,100849.81
2022-12-08T07:28:36.948Z,100840.94
2022-12-08T07:31:05.320Z,100856.00
2022-12-08T07:33:32.925Z,100859.41
2022-12-08T07:36:04.881Z,100857.75
2022-12-08T07:38:32.131Z,100856.13
2022-12-08T07:40:59.007Z,100824.00
2022-12-08T07:43:25.553Z,100849.63
2022-12-08T07:45:52.154Z,100857.50
2022-12-08T07:48:19.479Z,100855.75
2022-12-08T07:50:46.846Z,100852.28
2022-12-08T07:53:13.685Z,100855.72
2022-12-08T07:55:41.820Z,100847.84
2022-12-08T07:58:08.709Z,100845.28
2022-12-08T08:00:35.833Z,100853.03
2022-12-08T08:03:02.867Z,100826.19
2022-12-08T08:05:29.949Z,100834.78
2022-12-08T08:07:56.617Z,100829.75
2022-12-08T08:10:23.247Z,100827.41
2022-12-08T08:12:49.950Z,100835.19
2022-12-08T08:15:17.876Z,100848.25
2022-12-08T08:17:44.869Z,100839.50
2022-12-08T08:20:11.918Z,100846.50
2022-12-08T08:22:38.462Z,100835.28
2022-12-08T08:25:05.716Z,100843.09
2022-12-08T08:27:32.385Z,100838.88
2022-12-08T08:29:59.328Z,100837.72
2022-12-08T08:32:25.829Z,100853.22
2022-12-08T08:34:52.331Z,100836.91
2022-12-08T08:37:19.633Z,100796.94
2022-12-08T08:39:46.723Z,100854.03
2022-12-08T08:42:13.256Z,100856.19
2022-12-08T08:44:39.845Z,100817.97
2022-12-08T08:47:06.491Z,100846.69
2022-12-08T08:49:33.044Z,100845.94
2022-12-08T08:51:59.556Z,100844.31
2022-12-08T08:54:28.834Z,100860.84
2022-12-08T08:56:56.690Z,100858.47
2022-12-08T08:59:23.210Z,100821.38
2022-12-08T09:01:50.030Z,100840.50
2022-12-08T09:04:17.417Z,100835.47
2022-12-08T09:06:45.241Z,100843.19
2022-12-08T09:09:12.589Z,100817.03
2022-12-08T09:11:39.567Z,100865.88
2022-12-08T09:14:06.563Z,100864.38
2022-12-08T09:16:37.485Z,100837.59
2022-12-08T09:19:07.181Z,100852.34
2022-12-08T09:21:33.852Z,100875.63
2022-12-08T09:24:00.477Z,100859.06
2022-12-08T09:26:28.262Z,100867.66
2022-12-08T09:28:55.899Z,100874.78
2022-12-08T09:31:24.100Z,100870.53
2022-12-08T09:33:53.991Z,100867.03
2022-12-08T09:36:20.873Z,100862.75
2022-12-08T09:38:47.931Z,100857.66
2022-12-08T09:41:40.664Z,100856.97
2022-12-08T09:44:42.334Z,100849.97
2022-12-08T09:47:22.495Z,100858.91
2022-12-08T09:50:01.328Z,100837.41
2022-12-08T09:52:33.662Z,100853.88
2022-12-08T09:55:04.754Z,100854.00
2022-12-08T09:57:32.046Z,100842.00
2022-12-08T10:00:05.725Z,100857.38
2022-12-08T10:02:32.698Z,100838.44
2022-12-08T10:04:59.641Z,100844.56
2022-12-08T10:07:26.194Z,100852.50
2022-12-08T10:09:58.701Z,100850.06
2022-12-08T10:12:34.102Z,100847.41
2022-12-08T10:15:37.614Z,100850.88
2022-12-08T10:18:20.142Z,100841.66
2022-12-08T10:20:49.574Z,100811.41
2022-12-08T10:23:27.690Z,100820.94
2022-12-08T10:26:15.790Z,100816.81
2022-12-08T10:28:45.536Z,100840.03
2022-12-08T10:31:26.011Z,100813.88
2022-12-08T10:34:00.725Z,100820.25
2022-12-08T10:36:52.127Z,100833.22
2022-12-08T10:39:35.303Z,100833.22
2022-12-08T10:42:15.571Z,100824.56
2022-12-08T10:45:15.353Z,100823.94
2022-12-08T10:47:45.376Z,100814.53
2022-12-08T10:50:27.832Z,100825.72
2022-12-08T10:53:19.809Z,100819.09
2022-12-08T10:55:53.120Z,100793.13
2022-12-08T10:58:27.014Z,100801.00
2022-12-08T11:00:57.014Z,100813.16
2022-12-08T11:03:32.969Z,100796.53
2022-12-08T11:06:09.043Z,100794.91
2022-12-08T11:08:47.816Z,100774.84
2022-12-08T11:11:14.817Z,100794.75
2022-12-08T11:13:42.620Z,100801.78
2022-12-08T11:16:14.841Z,100775.91
2022-12-08T11:18:47.989Z,100796.09
2022-12-08T11:21:18.047Z,100794.69
2022-12-08T11:23:50.564Z,100792.31
2022-12-08T11:26:32.266Z,100790.41
2022-12-08T11:28:59.354Z,100780.66
2022-12-08T11:31:36.892Z,100779.69
2022-12-08T11:34:04.109Z,100772.91
2022-12-08T11:36:35.719Z,100768.78
2022-12-08T11:39:04.498Z,100776.38
2022-12-08T11:41:37.522Z,100751.31
2022-12-08T11:44:25.890Z,100795.63
2022-12-08T11:46:59.919Z,100782.63
2022-12-08T11:49:36.217Z,100782.56
2022-12-08T11:52:14.668Z,100803.16
2022-12-08T11:55:26.361Z,100800.47
2022-12-08T11:57:56.081Z,100804.72
2022-12-08T12:00:22.750Z,100766.47
2022-12-08T12:02:58.815Z,100695.56
2022-12-08T12:06:05.791Z,100802.34
2022-12-08T12:08:49.091Z,100804.88
2022-12-08T12:11:52.569Z,100805.03
2022-12-08T12:14:37.631Z,100795.63
2022-12-08T12:17:23.168Z,100805.97
2022-12-08T12:19:51.226Z,100782.72
2022-12-08T12:22:22.477Z,100805.22
2022-12-08T12:24:51.630Z,100804.31
2022-12-08T12:27:27.007Z,100798.16
2022-12-08T12:30:00.606Z,100784.19
2022-12-08T12:32:40.461Z,100797.31
2022-12-08T12:35:26.813Z,100786.50
2022-12-08T12:37:59.071Z,100767.97
2022-12-08T12:40:28.200Z,100759.69
2022-12-08T12:42:54.669Z,100770.06
2022-12-08T12:45:21.088Z,100769.22
2022-12-08T12:47:57.371Z,100770.75
2022-12-08T12:50:33.832Z,100759.41
2022-12-08T12:53:07.916Z,100764.28
2022-12-08T12:55:46.941Z,100763.25
2022-12-08T12:58:41.010Z,100749.16
2022-12-08T13:01:10.680Z,100761.38
2022-12-08T13:04:03.074Z,100751.88
2022-12-08T13:06:41.045Z,100751.22
2022-12-08T13:09:36.966Z,100737.53
2022-12-08T13:12:22.944Z,100748.28
2022-12-08T13:14:51.139Z,100745.19
2022-12-08T13:17:27.279Z,100736.91
2022-12-08T13:20:00.040Z,100713.47
2022-12-08T13:23:05.669Z,100748.81
2022-12-08T13:25:44.158Z,100751.28
2022-12-08T13:28:30.826Z,100738.47
2022-12-08T13:30:59.616Z,100745.25
2022-12-08T13:33:30.113Z,100745.28
2022-12-08T13:36:05.624Z,100725.41
2022-12-08T13:38:36.072Z,100744.25
2022-12-08T13:41:09.229Z,100731.13
2022-12-08T13:44:02.212Z,100746.56
2022-12-08T13:58:28.578Z,100729.88
2022-12-08T14:01:06.653Z,100739.41
2022-12-08T14:06:46.703Z,100717.69
2022-12-08T14:09:24.663Z,100716.91
2022-12-08T14:12:03.349Z,100714.31
2022-12-08T14:15:01.253Z,100743.72
2022-12-08T14:17:24.122Z,100741.88
2022-12-08T14:20:18.623Z,100733.88
2022-12-08T14:22:46.312Z,100746.81
2022-12-08T14:25:17.952Z,100738.38
2022-12-08T14:27:46.443Z,100727.38
2022-12-08T14:30:16.233Z,100730.13
2022-12-08T14:32:58.676Z,100714.44
2022-12-08T14:35:34.514Z,100734.44
2022-12-08T14:38:03.531Z,100726.66
2022-12-08T14:40:34.064Z,100729.34
2022-12-08T14:43:15.594Z,100696.31
2022-12-08T14:45:44.916Z,100720.72
2022-12-08T14:48:31.070Z,100730.03
2022-12-08T14:51:03.442Z,100728.19
2022-12-08T14:53:41.064Z,100712.44
2022-12-08T14:56:27.859Z,100724.34
2022-12-08T14:59:09.416Z,100721.56
2022-12-08T15:01:36.268Z,100720.44
2022-12-08T15:04:12.099Z,100722.91
2022-12-08T15:06:51.360Z,100713.34
2022-12-08T15:09:30.541Z,100701.94
2022-12-08T15:12:23.261Z,100717.59
2022-12-08T15:15:03.227Z,100727.84
2022-12-08T15:17:41.315Z,100726.22
2022-12-08T15:20:38.947Z,100725.25
2022-12-08T15:23:06.656Z,100696.63
2022-12-08T15:25:33.691Z,100701.91
2022-12-08T15:28:03.561Z,100719.28
2022-12-08T15:30:30.320Z,100701.03
2022-12-08T15:32:56.932Z,100667.78
2022-12-08T15:35:23.988Z,100711.94
2022-12-08T15:37:50.659Z,100701.56
2022-12-08T15:40:20.300Z,100717.94
2022-12-08T15:42:46.893Z,100720.47
2022-12-08T15:45:14.619Z,100718.66
2022-12-08T15:47:45.355Z,100721.97
2022-12-08T15:50:22.452Z,100724.28
2022-12-08T15:52:50.540Z,100711.94
2022-12-08T15:55:21.208Z,100724.47
2022-12-08T16:00:54.475Z,100731.56
2022-12-08T16:09:15.603Z,100730.94
2022-12-08T16:12:10.147Z,100727.00
2022-12-08T16:17:26.473Z,100742.88
2022-12-08T16:19:53.446Z,100736.28
2022-12-08T16:25:19.351Z,100739.47
2022-12-08T16:28:23.105Z,100725.25
2022-12-08T16:30:36.034Z,100747.50
2022-12-08T16:33:02.650Z,100743.84
2022-12-08T16:35:30.261Z,100703.25
2022-12-08T16:37:57.436Z,100729.34
2022-12-08T16:40:24.346Z,100701.50
2022-12-08T16:42:50.964Z,100741.47
2022-12-08T16:45:21.785Z,100719.09
2022-12-08T16:47:53.880Z,100719.44
2022-12-08T16:50:22.711Z,100740.13
2022-12-08T16:52:50.303Z,100738.66
2022-12-08T16:55:19.248Z,100730.25
2022-12-08T16:57:47.229Z,100730.03
2022-12-08T17:00:25.181Z,100714.09
2022-12-08T17:02:52.453Z,100721.88
2022-12-08T17:05:21.970Z,100720.03
2022-12-08T17:07:50.643Z,100729.97
2022-12-08T17:10:20.800Z,100725.41
2022-12-08T17:12:47.865Z,100732.09
2022-12-08T17:15:17.928Z,100691.31
2022-12-08T17:17:44.584Z,100724.09
2022-12-08T17:20:21.213Z,100719.00
2022-12-08T17:22:47.770Z,100699.16
2022-12-08T17:25:14.759Z,100707.13
2022-12-08T17:27:42.296Z,100698.56
2022-12-08T17:30:11.704Z,100683.91
2022-12-08T17:32:38.794Z,100681.59
2022-12-08T17:35:06.056Z,100717.06
2022-12-08T17:37:32.918Z,100732.69
2022-12-08T17:39:59.966Z,100722.53
2022-12-08T17:42:27.297Z,100716.63
2022-12-08T17:44:55.276Z,100686.06
2022-12-08T17:47:22.139Z,100703.28
2022-12-08T17:49:48.727Z,100700.63
2022-12-08T17:52:15.659Z,100720.41
2022-12-08T17:54:42.196Z,100717.94
2022-12-08T17:57:09.278Z,100708.91
2022-12-08T17:59:35.850Z,100725.22
2022-12-08T18:02:02.618Z,100681.00
2022-12-08T18:04:30.066Z,100721.63
2022-12-08T18:06:59.308Z,100701.50
2022-12-08T18:09:26.343Z,100703.00
2022-12-08T18:11:53.522Z,100729.63
2022-12-08T18:14:20.418Z,100707.88
2022-12-08T18:16:47.915Z,100713.50
2022-12-08T18:19:16.021Z,100715.56
2022-12-08T18:21:43.198Z,100726.97
2022-12-08T18:24:17.562Z,100735.31
2022-12-08T18:26:44.630Z,100735.28
2022-12-08T18:29:11.182Z,100733.50
2022-12-08T18:31:38.481Z,100731.78
2022-12-08T18:34:05.069Z,100728.44
2022-12-08T18:36:32.130Z,100725.25
2022-12-08T18:38:58.639Z,100727.25
2022-12-08T18:41:26.011Z,100692.97
2022-12-08T18:43:54.402Z,100731.25
2022-12-08T18:46:22.036Z,100731.31
2022-12-08T18:48:50.582Z,100730.72
2022-12-08T18:51:19.748Z,100742.88
2022-12-08T18:53:46.924Z,100719.47
2022-12-08T18:56:28.506Z,100736.13
2022-12-08T18:59:01.482Z,100742.31
2022-12-08T19:01:29.933Z,100749.53
2022-12-08T19:04:26.726Z,100754.75
2022-12-08T19:06:46.081Z,100751.53
2022-12-08T19:09:12.822Z,100750.78
2022-12-08T19:11:39.899Z,100755.97
2022-12-08T19:14:07.915Z,100747.56
2022-12-08T19:16:35.182Z,100753.66
2022-12-08T19:19:01.901Z,100766.69
2022-12-08T19:21:28.985Z,100765.94
2022-12-08T19:23:58.265Z,100766.09
2022-12-08T19:26:30.178Z,100760.25
2022-12-08T19:28:58.414Z,100754.28
2022-12-08T19:31:25.419Z,100737.91
2022-12-08T19:33:52.175Z,100736.38
2022-12-08T19:36:21.962Z,100721.53
2022-12-08T19:39:07.004Z,100768.16
2022-12-08T19:41:52.518Z,100766.50
2022-12-08T19:44:26.907Z,100767.31
2022-12-08T19:46:53.583Z,100771.66
2022-12-08T19:49:20.229Z,100755.94
2022-12-08T19:51:46.777Z,100761.97
2022-12-08T19:54:13.824Z,100749.72
2022-12-08T19:56:40.920Z,100768.06
2022-12-08T19:59:07.872Z,100773.94
2022-12-08T20:01:34.683Z,100752.28
2022-12-08T20:04:01.316Z,100769.66
2022-12-08T20:06:27.924Z,100775.06
2022-12-08T20:08:55.529Z,100767.25
2022-12-08T20:11:22.221Z,100773.53
2022-12-08T20:13:48.812Z,100775.38
2022-12-08T20:16:16.732Z,100777.03
2022-12-08T20:18:44.230Z,100774.25
2022-12-08T20:21:12.211Z,100766.19
2022-12-08T20:23:38.721Z,100762.47
2022-12-08T20:26:07.300Z,100796.41
2022-12-08T20:28:35.052Z,100737.59
2022-12-08T20:31:01.939Z,100711.56
2022-12-08T20:33:28.710Z,100794.16
2022-12-08T20:36:04.096Z,100779.94
2022-12-08T20:38:31.419Z,100773.16
2022-12-08T20:40:59.794Z,100798.78
2022-12-08T20:43:26.698Z,100781.56
2022-12-08T20:45:53.346Z,100782.44
2022-12-08T20:48:20.430Z,100780.81
2022-12-08T20:50:51.385Z,100803.34
2022-12-08T20:53:18.148Z,100788.13
2022-12-08T20:55:44.839Z,100784.28
2022-12-08T20:58:12.252Z,100793.22
2022-12-08T21:00:39.049Z,100801.84
2022-12-08T21:03:05.828Z,100760.84
2022-12-08T21:05:33.188Z,100781.81
2022-12-08T21:07:59.903Z,100779.94
2022-12-08T21:10:26.782Z,100797.19
2022-12-08T21:12:53.318Z,100797.25
2022-12-08T21:15:20.466Z,100760.00
2022-12-08T21:17:47.083Z,100793.13
2022-12-08T21:20:13.965Z,100795.84
2022-12-08T21:22:41.013Z,100777.66
2022-12-08T21:25:08.877Z,100804.47
2022-12-08T21:27:37.769Z,100781.94
2022-12-08T21:30:06.147Z,100784.47
2022-12-08T21:32:33.265Z,100799.44
2022-12-08T21:34:59.951Z,100799.44
2022-12-08T21:37:26.446Z,100800.25
2022-12-08T21:39:53.141Z,100796.59
2022-12-08T21:42:38.350Z,100793.97
2022-12-08T21:45:05.570Z,100785.28
2022-12-08T21:47:32.388Z,100781.91
2022-12-08T21:49:59.755Z,100790.47
2022-12-08T21:52:27.005Z,100798.44
2022-12-08T21:54:55.525Z,100792.38
2022-12-08T21:57:23.103Z,100805.22
2022-12-08T21:59:49.755Z,100801.66
2022-12-08T22:02:22.014Z,100811.22
2022-12-08T22:04:51.141Z,100817.22
2022-12-08T22:07:18.321Z,100808.66
2022-12-08T22:09:45.824Z,100822.38
2022-12-08T22:12:13.311Z,100800.00
2022-12-08T22:14:40.349Z,100803.53
2022-12-08T22:17:07.734Z,100813.22
2022-12-08T22:19:34.833Z,100813.97
2022-12-08T22:22:02.259Z,100808.56
2022-12-08T22:24:32.520Z,100809.59
2022-12-08T22:26:59.613Z,100815.50
2022-12-08T22:29:26.216Z,100829.22
2022-12-08T22:31:52.919Z,100831.81
2022-12-08T22:34:19.577Z,100833.56
2022-12-08T22:36:46.617Z,100816.28
2022-12-08T22:39:14.206Z,100805.91
2022-12-08T22:41:41.190Z,100808.47
2022-12-08T22:44:08.159Z,100821.28
2022-12-08T22:46:34.878Z,100824.16
2022-12-08T22:49:01.726Z,100824.25
2022-12-08T22:51:28.902Z,100799.69
2022-12-08T22:53:56.023Z,100808.28
2022-12-08T22:56:22.824Z,100817.22
2022-12-08T22:58:49.860Z,100805.22
2022-12-08T23:01:31.846Z,100811.34
2022-12-08T23:04:00.055Z,100794.97
2022-12-08T23:06:28.656Z,100809.75
2022-12-08T23:08:56.621Z,100796.84
2022-12-08T23:11:27.645Z,100811.44
2022-12-08T23:13:56.256Z,100800.19
2022-12-08T23:16:23.374Z,100809.59
2022-12-08T23:18:51.014Z,100806.19
2022-12-08T23:21:19.090Z,100806.38
2022-12-08T23:23:47.632Z,100802.22
2022-12-08T23:26:19.014Z,100787.34
2022-12-08T23:28:46.149Z,100801.44
2022-12-08T23:31:13.915Z,100795.47
2022-12-08T23:33:40.929Z,100794.66
2022-12-08T23:36:09.526Z,100789.41
2022-12-08T23:38:36.299Z,100772.09
2022-12-08T23:41:05.385Z,100773.06
2022-12-08T23:43:32.860Z,100787.03
2022-12-08T23:45:59.806Z,100793.75
2022-12-08T23:48:27.926Z,100765.13
2022-12-08T23:50:57.011Z,100792.72
2022-12-08T23:53:23.930Z,100781.41
2022-12-08T23:55:50.628Z,100797.72
2022-12-08T23:58:17.332Z,100778.59
